createdAt,value
2023-05-16T00:01:51.715Z,2.20
2023-05-16T00:04:20.315Z,2.30
2023-05-16T00:06:48.672Z,2.50
2023-05-16T00:09:17.623Z,2.90
2023-05-16T00:11:48.401Z,2.60
2023-05-16T00:14:16.806Z,2.20
2023-05-16T00:16:44.962Z,2.90
2023-05-16T00:19:13.892Z,2.90
2023-05-16T00:21:42.418Z,2.80
2023-05-16T00:24:10.616Z,2.40
2023-05-16T00:26:39.008Z,2.10
2023-05-16T00:29:07.425Z,2.40
2023-05-16T00:31:35.924Z,2.50
2023-05-16T00:34:04.487Z,2.70
2023-05-16T00:36:33.174Z,3.00
2023-05-16T00:39:01.482Z,2.40
2023-05-16T00:41:30.767Z,2.50
2023-05-16T00:43:59.118Z,3.00
2023-05-16T00:46:27.266Z,2.30
2023-05-16T00:48:55.578Z,2.50
2023-05-16T00:51:24.480Z,3.20
2023-05-16T00:53:53.717Z,2.70
2023-05-16T00:56:22.639Z,3.40
2023-05-16T00:58:51.201Z,3.40
2023-05-16T01:01:23.867Z,3.10
2023-05-16T01:03:55.337Z,2.60
2023-05-16T01:06:23.909Z,2.60
2023-05-16T01:08:52.244Z,3.10
2023-05-16T01:11:34.752Z,2.80
2023-05-16T01:14:26.792Z,2.60
2023-05-16T01:17:20.476Z,2.90
2023-05-16T01:20:15.386Z,3.20
2023-05-16T01:22:47.949Z,3.30
2023-05-16T01:25:36.712Z,2.50
2023-05-16T01:28:06.730Z,2.70
2023-05-16T01:30:44.050Z,2.70
2023-05-16T01:33:12.573Z,3.30
2023-05-16T01:35:59.929Z,2.50
2023-05-16T01:38:36.904Z,2.60
2023-05-16T01:41:28.150Z,3.20
2023-05-16T01:44:05.808Z,3.30
2023-05-16T01:46:41.525Z,2.90
2023-05-16T01:49:27.982Z,2.60
2023-05-16T01:52:02.189Z,2.40
2023-05-16T01:54:33.439Z,2.60
2023-05-16T01:57:08.244Z,2.50
2023-05-16T01:59:37.720Z,2.60
2023-05-16T02:02:06.203Z,3.20
2023-05-16T02:04:34.539Z,2.10
2023-05-16T02:07:03.024Z,2.60
2023-05-16T02:09:31.389Z,2.70
2023-05-16T02:12:01.246Z,2.70
2023-05-16T02:14:30.789Z,2.50
2023-05-16T02:16:59.158Z,2.80
2023-05-16T02:19:27.353Z,2.60
2023-05-16T02:21:55.594Z,2.80
2023-05-16T02:24:23.968Z,2.50
2023-05-16T02:26:52.181Z,2.50
2023-05-16T02:29:20.461Z,3.00
2023-05-16T02:31:48.728Z,2.70
2023-05-16T02:34:16.962Z,2.90
2023-05-16T02:36:45.479Z,2.50
2023-05-16T02:39:13.655Z,2.90
2023-05-16T02:41:41.986Z,2.80
2023-05-16T02:44:11.240Z,3.20
2023-05-16T02:46:39.789Z,2.70
2023-05-16T02:49:08.036Z,2.70
2023-05-16T02:51:36.442Z,3.30
2023-05-16T02:54:05.028Z,3.10
2023-05-16T02:56:33.337Z,3.50
2023-05-16T02:59:01.899Z,2.90
2023-05-16T03:01:30.706Z,2.90
2023-05-16T03:04:00.087Z,3.50
2023-05-16T03:06:28.513Z,2.80
2023-05-16T03:08:56.731Z,2.70
2023-05-16T03:11:26.137Z,2.40
2023-05-16T03:13:54.576Z,3.20
2023-05-16T03:16:22.976Z,2.50
2023-05-16T03:18:53.165Z,2.90
2023-05-16T03:21:21.580Z,3.30
2023-05-16T03:23:49.915Z,3.50
2023-05-16T03:26:18.372Z,3.40
2023-05-16T03:28:46.724Z,4.00
2023-05-16T03:31:15.256Z,2.70
2023-05-16T03:33:43.626Z,2.90
2023-05-16T03:36:12.100Z,2.70
2023-05-16T03:38:40.692Z,3.10
2023-05-16T03:41:08.959Z,3.10
2023-05-16T03:43:37.851Z,2.60
2023-05-16T03:46:06.154Z,2.90
2023-05-16T03:48:34.569Z,3.00
2023-05-16T03:51:02.795Z,2.90
2023-05-16T03:53:31.036Z,3.20
2023-05-16T03:55:59.878Z,2.90
2023-05-16T03:58:28.366Z,2.50
2023-05-16T04:00:56.560Z,3.00
2023-05-16T04:03:28.869Z,3.20
2023-05-16T04:05:57.673Z,3.10
2023-05-16T04:08:26.119Z,3.20
2023-05-16T04:10:54.667Z,2.80
2023-05-16T04:13:23.144Z,3.50
2023-05-16T04:15:51.498Z,4.00
2023-05-16T04:18:19.697Z,4.60
2023-05-16T04:20:48.070Z,4.90
2023-05-16T04:23:16.441Z,4.70
2023-05-16T04:25:44.930Z,4.20
2023-05-16T04:28:13.776Z,3.90
2023-05-16T04:30:42.107Z,5.00
2023-05-16T04:33:10.528Z,4.00
2023-05-16T04:35:39.866Z,3.00
2023-05-16T04:38:08.921Z,3.10
2023-05-16T04:40:37.903Z,3.80
2023-05-16T04:43:06.977Z,3.20
2023-05-16T04:45:37.493Z,2.30
2023-05-16T04:48:08.893Z,2.60
2023-05-16T04:50:37.376Z,3.10
2023-05-16T04:53:05.776Z,2.90
2023-05-16T04:55:40.906Z,3.30
2023-05-16T04:58:17.975Z,2.50
2023-05-16T05:00:53.523Z,2.80
2023-05-16T05:03:24.520Z,2.50
2023-05-16T05:06:04.118Z,3.00
2023-05-16T05:08:56.084Z,2.50
2023-05-16T05:11:33.899Z,3.60
2023-05-16T05:14:05.375Z,12.10
2023-05-16T05:16:39.651Z,8.20
2023-05-16T05:19:16.347Z,6.90
2023-05-16T05:21:52.680Z,6.00
2023-05-16T05:24:35.063Z,5.80
2023-05-16T05:27:15.264Z,4.10
2023-05-16T05:29:48.710Z,3.70
2023-05-16T05:32:38.329Z,3.00
2023-05-16T05:35:11.420Z,3.20
2023-05-16T05:37:41.113Z,3.10
2023-05-16T05:40:09.769Z,2.90
2023-05-16T05:42:38.182Z,2.90
2023-05-16T05:45:09.177Z,2.60
2023-05-16T05:47:50.165Z,2.80
2023-05-16T05:50:22.222Z,2.80
2023-05-16T05:53:20.052Z,2.70
2023-05-16T05:55:56.676Z,2.80
2023-05-16T05:58:30.277Z,2.70
2023-05-16T06:01:05.727Z,2.80
2023-05-16T06:03:44.107Z,2.80
2023-05-16T06:06:28.233Z,2.60
2023-05-16T06:09:11.093Z,2.90
2023-05-16T06:11:57.664Z,3.10
2023-05-16T06:14:51.095Z,2.80
2023-05-16T06:17:19.517Z,2.80
2023-05-16T06:19:48.081Z,2.60
2023-05-16T06:22:16.455Z,2.60
2023-05-16T06:24:44.769Z,3.00
2023-05-16T06:27:13.066Z,3.10
2023-05-16T06:29:43.557Z,2.80
2023-05-16T06:32:25.570Z,3.20
2023-05-16T06:35:08.783Z,3.20
2023-05-16T06:37:57.088Z,3.20
2023-05-16T06:40:54.675Z,3.40
2023-05-16T06:43:33.817Z,3.00
2023-05-16T06:46:16.990Z,3.40
2023-05-16T06:48:49.523Z,2.80
2023-05-16T06:51:17.851Z,2.90
2023-05-16T06:53:46.545Z,2.90
2023-05-16T06:56:14.918Z,3.40
2023-05-16T06:58:43.205Z,3.40
2023-05-16T07:01:17.865Z,3.30
2023-05-16T07:04:03.373Z,3.10
2023-05-16T07:06:36.103Z,3.20
2023-05-16T07:09:12.451Z,2.70
2023-05-16T07:11:55.817Z,3.00
2023-05-16T07:14:24.356Z,3.90
2023-05-16T07:16:53.308Z,3.00
2023-05-16T07:19:21.822Z,3.70
2023-05-16T07:21:50.465Z,3.20
2023-05-16T07:24:18.843Z,3.10
2023-05-16T07:26:50.375Z,3.40
2023-05-16T07:29:27.402Z,4.00
2023-05-16T07:32:27.493Z,3.20
2023-05-16T07:35:00.726Z,3.20
2023-05-16T07:37:41.091Z,3.60
2023-05-16T07:40:22.033Z,3.30
2023-05-16T07:43:05.974Z,3.40
2023-05-16T07:45:41.851Z,2.90
2023-05-16T07:48:14.019Z,3.10
2023-05-16T07:50:53.217Z,3.20
2023-05-16T07:53:36.269Z,3.00
2023-05-16T07:56:13.696Z,2.80
2023-05-16T07:58:45.078Z,3.10
2023-05-16T08:01:24.376Z,2.90
2023-05-16T08:04:05.535Z,3.00
2023-05-16T08:07:03.257Z,3.10
2023-05-16T08:09:51.241Z,3.50
2023-05-16T08:12:30.396Z,3.10
2023-05-16T08:15:05.137Z,2.90
2023-05-16T08:17:47.566Z,2.90
2023-05-16T08:20:19.817Z,3.40
2023-05-16T08:22:48.732Z,3.30
2023-05-16T08:25:28.732Z,3.70
2023-05-16T08:28:04.191Z,3.30
2023-05-16T08:30:36.662Z,3.50
2023-05-16T08:33:21.994Z,3.20
2023-05-16T08:36:00.651Z,3.70
2023-05-16T08:38:44.755Z,3.60
2023-05-16T08:41:19.794Z,3.60
2023-05-16T08:44:31.014Z,3.00
2023-05-16T08:47:31.173Z,2.90
2023-05-16T08:50:12.665Z,2.90
2023-05-16T08:52:48.566Z,3.00
2023-05-16T08:55:22.201Z,3.20
2023-05-16T08:58:03.549Z,3.10
2023-05-16T09:00:37.550Z,3.80
2023-05-16T09:03:13.337Z,3.50
2023-05-16T09:05:43.373Z,3.20
2023-05-16T09:08:11.997Z,3.40
2023-05-16T09:11:01.753Z,3.50
2023-05-16T09:13:35.738Z,3.30
2023-05-16T09:16:23.652Z,3.40
2023-05-16T09:19:00.213Z,3.10
2023-05-16T09:21:31.939Z,3.60
2023-05-16T09:24:14.316Z,3.50
2023-05-16T09:27:05.351Z,3.30
2023-05-16T09:29:44.134Z,3.60
2023-05-16T09:32:17.883Z,3.40
2023-05-16T09:34:49.506Z,3.60
2023-05-16T09:37:19.165Z,3.60
2023-05-16T09:39:50.372Z,3.40
2023-05-16T09:42:20.204Z,3.90
2023-05-16T09:44:54.577Z,3.40
2023-05-16T09:47:22.956Z,3.30
2023-05-16T09:49:54.671Z,3.80
2023-05-16T09:52:26.803Z,3.30
2023-05-16T09:54:55.116Z,3.40
2023-05-16T09:57:23.793Z,3.60
2023-05-16T09:59:54.303Z,3.50
2023-05-16T10:02:23.457Z,3.70
2023-05-16T10:05:07.230Z,3.40
2023-05-16T10:07:40.127Z,3.10
2023-05-16T10:10:16.579Z,4.00
2023-05-16T10:12:52.770Z,3.20
2023-05-16T10:15:22.996Z,3.50
2023-05-16T10:17:53.807Z,3.70
2023-05-16T10:20:26.697Z,3.90
2023-05-16T10:23:06.651Z,4.00
2023-05-16T10:25:48.123Z,4.10
2023-05-16T10:28:30.763Z,3.70
2023-05-16T10:31:03.408Z,3.70
2023-05-16T10:33:38.978Z,3.30
2023-05-16T10:36:16.993Z,4.10
2023-05-16T10:39:04.943Z,4.00
2023-05-16T10:41:44.969Z,3.80
2023-05-16T10:44:20.233Z,3.90
2023-05-16T10:46:49.027Z,3.90
2023-05-16T10:49:34.320Z,3.80
2023-05-16T10:52:12.529Z,4.10
2023-05-16T10:54:43.741Z,4.40
2023-05-16T10:57:23.069Z,3.90
2023-05-16T11:00:02.069Z,4.30
2023-05-16T11:02:34.181Z,4.40
2023-05-16T11:05:12.396Z,4.20
2023-05-16T11:08:07.741Z,4.60
2023-05-16T11:10:58.878Z,4.30
2023-05-16T11:13:39.435Z,3.80
2023-05-16T11:16:34.950Z,4.20
2023-05-16T11:19:11.790Z,4.00
2023-05-16T11:22:21.777Z,4.30
2023-05-16T11:25:00.146Z,4.30
2023-05-16T11:30:31.459Z,4.70
2023-05-16T11:33:04.029Z,4.50
2023-05-16T11:35:36.614Z,4.70
2023-05-16T11:38:19.672Z,4.60
2023-05-16T11:40:54.723Z,5.10
2023-05-16T11:43:44.997Z,4.70
2023-05-16T11:46:19.790Z,4.40
2023-05-16T11:48:49.328Z,4.60
2023-05-16T11:51:20.406Z,5.00
2023-05-16T11:53:53.563Z,4.60
2023-05-16T11:56:29.135Z,5.00
2023-05-16T11:59:15.674Z,4.30
2023-05-16T12:01:56.275Z,4.50
2023-05-16T12:04:54.685Z,4.70
2023-05-16T12:07:35.660Z,4.20
2023-05-16T12:10:10.754Z,4.50
2023-05-16T12:12:53.736Z,5.30
2023-05-16T12:15:26.196Z,4.70
2023-05-16T12:17:58.586Z,4.70
2023-05-16T12:20:35.011Z,4.80
2023-05-16T12:23:25.180Z,5.10
2023-05-16T12:26:02.026Z,5.50
2023-05-16T12:28:40.166Z,5.70
2023-05-16T12:31:31.072Z,5.30
2023-05-16T12:34:00.533Z,5.40
2023-05-16T12:36:44.606Z,5.50
2023-05-16T12:39:14.393Z,5.30
2023-05-16T12:41:43.414Z,5.80
2023-05-16T12:44:23.713Z,5.40
2023-05-16T12:46:53.022Z,5.80
2023-05-16T12:49:25.534Z,4.60
2023-05-16T12:51:56.359Z,5.10
2023-05-16T12:54:25.688Z,5.90
2023-05-16T12:56:54.046Z,5.00
2023-05-16T12:59:22.386Z,5.10
2023-05-16T13:01:51.148Z,4.60
2023-05-16T13:04:20.638Z,5.10
2023-05-16T13:06:59.234Z,4.70
2023-05-16T13:09:32.002Z,7.00
2023-05-16T13:12:01.170Z,5.80
2023-05-16T13:14:29.653Z,5.90
2023-05-16T13:16:58.311Z,21.50
2023-05-16T13:19:26.882Z,17.60
2023-05-16T13:21:56.413Z,7.40
2023-05-16T13:24:24.669Z,6.30
2023-05-16T13:26:53.813Z,5.90
2023-05-16T13:29:22.288Z,5.70
2023-05-16T13:31:50.706Z,5.70
2023-05-16T13:34:19.122Z,5.80
2023-05-16T13:36:54.390Z,5.20
2023-05-16T13:39:24.017Z,5.70
2023-05-16T13:41:53.320Z,6.40
2023-05-16T13:44:22.837Z,5.20
2023-05-16T13:46:51.493Z,6.30
2023-05-16T13:49:19.978Z,6.10
2023-05-16T13:51:48.307Z,7.20
2023-05-16T13:54:17.317Z,7.30
2023-05-16T13:56:46.381Z,7.60
2023-05-16T13:59:18.508Z,7.50
2023-05-16T14:01:49.424Z,8.90
2023-05-16T14:04:18.039Z,7.10
2023-05-16T14:06:46.553Z,7.80
2023-05-16T14:09:15.651Z,8.10
2023-05-16T14:11:44.556Z,7.60
2023-05-16T14:14:12.917Z,7.50
2023-05-16T14:16:45.944Z,8.00
2023-05-16T14:19:17.326Z,6.20
2023-05-16T14:21:46.783Z,5.10
2023-05-16T14:24:15.050Z,4.30
2023-05-16T14:26:43.420Z,4.00
2023-05-16T14:29:13.142Z,6.40
2023-05-16T14:31:41.654Z,4.60
2023-05-16T14:34:10.024Z,4.10
2023-05-16T14:36:38.537Z,3.80
2023-05-16T14:39:06.847Z,4.40
2023-05-16T14:41:35.347Z,4.80
2023-05-16T14:44:03.776Z,4.90
2023-05-16T14:46:32.342Z,11.40
2023-05-16T14:49:00.734Z,13.20
2023-05-16T14:51:29.120Z,9.30
2023-05-16T14:53:57.453Z,7.10
2023-05-16T14:56:27.546Z,5.70
2023-05-16T14:58:55.844Z,4.50
2023-05-16T15:01:24.228Z,5.40
2023-05-16T15:03:55.835Z,4.70
2023-05-16T15:06:25.316Z,4.50
2023-05-16T15:08:53.841Z,4.60
2023-05-16T15:11:22.209Z,4.70
2023-05-16T15:13:50.655Z,4.90
2023-05-16T15:16:18.967Z,4.60
2023-05-16T15:18:47.342Z,4.90
2023-05-16T15:21:16.206Z,4.70
2023-05-16T15:23:44.519Z,4.40
2023-05-16T15:26:12.716Z,4.70
2023-05-16T15:28:41.102Z,4.90
2023-05-16T15:31:09.397Z,5.60
2023-05-16T15:33:37.911Z,5.00
2023-05-16T15:36:06.746Z,5.40
2023-05-16T15:38:35.506Z,5.70
2023-05-16T15:43:42.536Z,5.80
2023-05-16T15:46:11.360Z,18.30
2023-05-16T15:48:42.986Z,10.30
2023-05-16T15:51:13.157Z,9.50
2023-05-16T15:53:41.533Z,7.70
2023-05-16T15:56:09.939Z,34.70
2023-05-16T15:58:38.397Z,24.70
2023-05-16T16:01:06.701Z,15.90
2023-05-16T16:03:35.166Z,21.60
2023-05-16T16:06:05.439Z,12.60
2023-05-16T16:08:33.774Z,21.80
2023-05-16T16:11:02.103Z,21.50
2023-05-16T16:13:31.393Z,48.40
2023-05-16T16:15:59.764Z,151.30
2023-05-16T16:18:28.536Z,32.20
2023-05-16T16:20:56.992Z,20.20
2023-05-16T16:23:25.433Z,15.70
2023-05-16T16:25:53.721Z,24.30
2023-05-16T16:28:22.678Z,20.00
2023-05-16T16:30:51.316Z,22.70
2023-05-16T16:33:19.768Z,15.30
2023-05-16T16:35:48.337Z,24.40
2023-05-16T16:38:17.691Z,21.00
2023-05-16T16:40:46.014Z,23.20
2023-05-16T16:43:17.350Z,26.20
2023-05-16T16:45:45.717Z,24.60
2023-05-16T16:48:14.115Z,25.40
2023-05-16T16:50:43.548Z,17.60
2023-05-16T16:53:12.018Z,20.10
2023-05-16T16:55:41.046Z,18.00
2023-05-16T16:58:09.618Z,18.50
2023-05-16T17:00:37.965Z,17.50
2023-05-16T17:03:06.610Z,105.50
2023-05-16T17:05:35.217Z,53.40
2023-05-16T17:08:04.020Z,32.90
2023-05-16T17:10:32.580Z,18.60
2023-05-16T17:13:07.256Z,16.10
2023-05-16T17:18:08.417Z,9.00
2023-05-16T17:20:36.941Z,8.70
2023-05-16T17:23:05.523Z,7.10
2023-05-16T17:25:33.891Z,6.90
2023-05-16T17:28:02.793Z,7.30
2023-05-16T17:30:31.108Z,7.60
2023-05-16T17:32:59.367Z,6.50
2023-05-16T17:35:28.091Z,6.70
2023-05-16T17:37:56.691Z,6.80
2023-05-16T17:40:24.986Z,7.40
2023-05-16T17:42:53.444Z,8.40
2023-05-16T17:45:21.744Z,7.00
2023-05-16T17:47:50.264Z,6.70
2023-05-16T17:50:20.278Z,5.90
2023-05-16T17:52:48.561Z,7.90
2023-05-16T17:55:16.914Z,8.60
2023-05-16T17:57:45.705Z,8.30
2023-05-16T18:00:15.090Z,7.80
2023-05-16T18:02:44.789Z,8.00
2023-05-16T18:05:16.494Z,9.20
2023-05-16T18:07:44.920Z,13.80
2023-05-16T18:10:13.747Z,16.20
2023-05-16T18:12:42.880Z,17.40
2023-05-16T18:15:12.754Z,22.80
2023-05-16T18:17:41.233Z,24.40
2023-05-16T18:20:11.056Z,16.80
2023-05-16T18:22:39.741Z,19.50
2023-05-16T18:25:10.099Z,32.40
2023-05-16T18:27:39.933Z,23.50
2023-05-16T18:30:10.944Z,22.40
2023-05-16T18:32:40.091Z,20.30
2023-05-16T18:35:09.295Z,22.00
2023-05-16T18:37:37.668Z,20.70
2023-05-16T18:40:07.201Z,20.80
2023-05-16T18:42:35.637Z,20.90
2023-05-16T18:45:04.458Z,19.60
2023-05-16T18:47:32.950Z,20.70
2023-05-16T18:50:01.527Z,16.10
2023-05-16T18:52:29.867Z,18.90
2023-05-16T18:54:58.750Z,18.10
2023-05-16T18:57:27.186Z,17.30
2023-05-16T18:59:56.815Z,20.50
2023-05-16T19:02:38.022Z,21.00
2023-05-16T19:07:56.587Z,22.10
2023-05-16T19:10:25.660Z,19.30
2023-05-16T19:12:54.484Z,18.60
2023-05-16T19:15:23.065Z,18.50
2023-05-16T19:17:51.554Z,16.90
2023-05-16T19:20:19.919Z,19.10
2023-05-16T19:22:48.203Z,16.60
2023-05-16T19:25:16.550Z,14.50
2023-05-16T19:27:44.866Z,15.30
2023-05-16T19:30:13.404Z,15.60
2023-05-16T19:32:41.863Z,16.00
2023-05-16T19:35:10.868Z,16.10
2023-05-16T19:37:39.225Z,16.80
2023-05-16T19:40:08.629Z,17.60
2023-05-16T19:42:36.907Z,16.60
2023-05-16T19:45:05.741Z,18.60
2023-05-16T19:47:34.172Z,18.40
2023-05-16T19:50:03.236Z,19.80
2023-05-16T19:52:31.718Z,19.70
2023-05-16T19:55:00.153Z,18.60
2023-05-16T19:57:28.685Z,16.00
2023-05-16T19:59:57.047Z,15.80
2023-05-16T20:02:25.453Z,16.30
2023-05-16T20:04:54.024Z,16.00
2023-05-16T20:07:23.195Z,16.50
2023-05-16T20:09:51.583Z,17.30
2023-05-16T20:12:19.902Z,16.60
2023-05-16T20:14:48.266Z,16.80
2023-05-16T20:17:16.676Z,16.20
2023-05-16T20:19:45.581Z,18.80
2023-05-16T20:22:13.934Z,17.70
2023-05-16T20:24:42.294Z,17.80
2023-05-16T20:27:10.722Z,18.00
2023-05-16T20:29:38.936Z,17.70
2023-05-16T20:32:07.460Z,18.50
2023-05-16T20:34:35.810Z,19.00
2023-05-16T20:37:04.316Z,20.50
2023-05-16T20:39:33.248Z,22.10
2023-05-16T20:42:01.549Z,21.40
2023-05-16T20:44:30.055Z,21.60
2023-05-16T20:46:58.366Z,23.00
2023-05-16T20:49:26.606Z,27.50
2023-05-16T20:51:54.833Z,26.40
2023-05-16T20:54:23.120Z,24.80
2023-05-16T20:56:51.409Z,23.90
2023-05-16T20:59:19.734Z,23.20
2023-05-16T21:01:48.259Z,24.00
2023-05-16T21:04:16.910Z,24.70
2023-05-16T21:06:45.469Z,22.70
2023-05-16T21:09:13.752Z,25.60
2023-05-16T21:11:42.081Z,27.60
2023-05-16T21:14:10.444Z,27.50
2023-05-16T21:16:38.754Z,24.00
2023-05-16T21:19:07.202Z,22.30
2023-05-16T21:21:35.411Z,20.10
2023-05-16T21:24:04.583Z,19.20
2023-05-16T21:26:32.942Z,19.70
2023-05-16T21:29:01.477Z,19.30
2023-05-16T21:31:29.954Z,18.40
2023-05-16T21:33:58.274Z,18.40
2023-05-16T21:36:26.651Z,19.50
2023-05-16T21:38:55.096Z,19.90
2023-05-16T21:41:29.086Z,19.40
2023-05-16T21:43:57.483Z,20.10
2023-05-16T21:46:26.453Z,19.20
2023-05-16T21:48:54.769Z,20.30
2023-05-16T21:51:23.231Z,20.00
2023-05-16T21:53:51.507Z,20.20
2023-05-16T21:56:19.896Z,20.20
2023-05-16T21:58:48.317Z,17.50
2023-05-16T22:01:17.075Z,19.10
2023-05-16T22:03:45.471Z,19.00
2023-05-16T22:06:13.870Z,18.10
2023-05-16T22:08:45.018Z,18.80
2023-05-16T22:11:13.572Z,19.30
2023-05-16T22:13:41.960Z,18.00
2023-05-16T22:16:11.228Z,16.70
2023-05-16T22:18:39.755Z,18.40
2023-05-16T22:21:08.358Z,17.90
2023-05-16T22:23:36.638Z,18.20
2023-05-16T22:26:05.381Z,16.80
2023-05-16T22:28:33.787Z,17.10
2023-05-16T22:31:02.005Z,17.80
2023-05-16T22:33:30.609Z,17.00
2023-05-16T22:35:59.047Z,17.40
2023-05-16T22:38:27.257Z,16.70
2023-05-16T22:40:56.022Z,18.00
2023-05-16T22:43:24.423Z,18.10
2023-05-16T22:45:52.765Z,17.00
2023-05-16T22:48:21.089Z,17.20
2023-05-16T22:50:49.586Z,17.50
2023-05-16T22:53:17.791Z,17.40
2023-05-16T22:55:46.338Z,18.10
2023-05-16T22:58:14.523Z,17.20
2023-05-16T23:00:42.774Z,18.50
2023-05-16T23:03:11.283Z,17.90
2023-05-16T23:05:39.733Z,17.30
2023-05-16T23:08:08.074Z,17.60
2023-05-16T23:10:37.115Z,17.50
2023-05-16T23:13:05.654Z,18.40
2023-05-16T23:15:33.885Z,17.50
2023-05-16T23:18:02.530Z,17.70
2023-05-16T23:20:30.935Z,17.80
2023-05-16T23:23:00.991Z,16.50
2023-05-16T23:25:29.663Z,17.50
2023-05-16T23:27:58.290Z,16.70
2023-05-16T23:30:26.814Z,18.40
2023-05-16T23:32:55.383Z,17.00
2023-05-16T23:35:23.690Z,16.90
2023-05-16T23:37:52.016Z,16.70
2023-05-16T23:40:20.299Z,17.10
2023-05-16T23:42:48.621Z,16.90
2023-05-16T23:45:16.862Z,15.70
2023-05-16T23:47:45.999Z,15.70
2023-05-16T23:50:16.355Z,16.40
2023-05-16T23:52:44.647Z,16.40
2023-05-16T23:55:13.502Z,15.60
2023-05-16T23:57:41.747Z,15.90
